Terminal Aerodrome Forecast
Issued by NWS Duluth, MN

Home | Current Version | Previous Version | Text Only | Print | Product List | Glossary On
Versions: 1 2 3 4 5 6 7 8 9 10 11 12 13 14 15 16 17 18 19 20 21 22 23
000
FTUS43 KDLH 281132
TAFINL
TAF
KINL 281132Z 2812/2912 05005KT 6SM BR VCSH SCT025 OVC050
      TEMPO 2812/2814 6SM -SHRA BR BKN025
     FM281400 04006KT 6SM -SHRA BR BKN015 OVC040
     FM281800 04005KT 3SM -SHRA BR OVC008
     FM290100 06004KT 2SM -DZ BR OVC005
     FM290700 32003KT 3SM -DZ BR OVC006=

USA.gov is the U.S. government's official web portal to all federal, state and local government web resources and services.